createdAt,value
2023-03-02T00:02:17.604Z,2.15
2023-03-02T00:04:46.896Z,2.15
2023-03-02T00:07:15.092Z,2.14
2023-03-02T00:09:45.245Z,2.13
2023-03-02T00:12:12.866Z,2.11
2023-03-02T00:14:40.397Z,2.09
2023-03-02T00:17:08.462Z,2.09
2023-03-02T00:19:36.538Z,2.08
2023-03-02T00:22:04.126Z,2.06
2023-03-02T00:24:31.685Z,2.04
2023-03-02T00:27:00.559Z,2.03
2023-03-02T00:29:28.139Z,2.03
2023-03-02T00:31:55.773Z,2.03
2023-03-02T00:34:23.443Z,2.03
2023-03-02T00:36:51.160Z,2.00
2023-03-02T00:39:20.139Z,1.99
2023-03-02T00:41:48.709Z,1.99
2023-03-02T00:44:18.507Z,1.95
2023-03-02T00:46:46.316Z,1.93
2023-03-02T00:49:13.955Z,1.91
2023-03-02T00:51:41.776Z,1.89
2023-03-02T00:54:09.375Z,1.88
2023-03-02T00:56:36.938Z,1.89
2023-03-02T00:59:11.089Z,1.88
2023-03-02T01:01:40.051Z,1.88
2023-03-02T01:04:07.592Z,1.87
2023-03-02T01:06:35.294Z,1.88
2023-03-02T01:09:02.880Z,1.86
2023-03-02T01:11:30.425Z,1.85
2023-03-02T01:13:57.943Z,1.85
2023-03-02T01:16:25.665Z,1.85
2023-03-02T01:18:54.544Z,1.84
2023-03-02T01:21:22.077Z,1.82
2023-03-02T01:23:49.670Z,1.79
2023-03-02T01:26:17.215Z,1.77
2023-03-02T01:28:44.742Z,1.76
2023-03-02T01:31:12.382Z,1.73
2023-03-02T01:33:39.881Z,1.73
2023-03-02T01:36:09.291Z,1.72
2023-03-02T01:38:36.847Z,1.73
2023-03-02T01:41:04.429Z,1.72
2023-03-02T01:43:31.917Z,1.70
2023-03-02T01:46:00.061Z,1.70
2023-03-02T01:48:28.900Z,1.68
2023-03-02T01:50:56.492Z,1.66
2023-03-02T01:53:25.597Z,1.63
2023-03-02T01:55:53.087Z,1.64
2023-03-02T01:58:21.711Z,1.63
2023-03-02T02:00:49.387Z,1.61
2023-03-02T02:03:21.032Z,1.60
2023-03-02T02:05:50.316Z,1.57
2023-03-02T02:08:17.783Z,1.56
2023-03-02T02:10:46.711Z,1.54
2023-03-02T02:13:14.193Z,1.55
2023-03-02T02:15:41.692Z,1.56
2023-03-02T02:18:09.184Z,1.57
2023-03-02T02:20:37.322Z,1.57
2023-03-02T02:23:13.440Z,1.57
2023-03-02T02:25:55.385Z,1.56
2023-03-02T02:28:25.215Z,1.55
2023-03-02T02:30:53.166Z,1.55
2023-03-02T02:33:21.907Z,1.54
2023-03-02T02:35:49.444Z,1.55
2023-03-02T02:38:17.327Z,1.56
2023-03-02T02:40:46.742Z,1.55
2023-03-02T02:43:14.541Z,1.54
2023-03-02T02:45:43.519Z,1.55
2023-03-02T02:48:12.140Z,1.54
2023-03-02T02:50:39.638Z,1.52
2023-03-02T02:53:08.071Z,1.51
2023-03-02T02:55:35.640Z,1.49
2023-03-02T02:58:09.993Z,1.47
2023-03-02T03:00:37.917Z,1.44
2023-03-02T03:03:09.182Z,1.42
2023-03-02T03:05:36.662Z,1.41
2023-03-02T03:08:08.138Z,1.39
2023-03-02T03:10:36.020Z,1.40
2023-03-02T03:13:03.705Z,1.38
2023-03-02T03:15:31.341Z,1.35
2023-03-02T03:17:59.252Z,1.31
2023-03-02T03:20:28.482Z,1.27
2023-03-02T03:22:59.265Z,1.24
2023-03-02T03:25:27.207Z,1.23
2023-03-02T03:27:54.721Z,1.22
2023-03-02T03:30:22.665Z,1.21
2023-03-02T03:32:50.136Z,1.20
2023-03-02T03:35:17.839Z,1.21
2023-03-02T03:37:48.535Z,1.21
2023-03-02T03:40:16.582Z,1.20
2023-03-02T03:42:44.185Z,1.19
2023-03-02T03:45:11.750Z,1.20
2023-03-02T03:47:39.333Z,1.19
2023-03-02T03:50:07.234Z,1.19
2023-03-02T03:52:34.749Z,1.15
2023-03-02T03:55:03.680Z,1.12
2023-03-02T03:57:31.169Z,1.10
2023-03-02T03:59:58.663Z,1.09
2023-03-02T04:02:26.299Z,1.08
2023-03-02T04:04:53.911Z,1.07
2023-03-02T04:07:21.388Z,1.07
2023-03-02T04:09:48.892Z,1.06
2023-03-02T04:12:17.889Z,1.07
2023-03-02T04:14:45.547Z,1.08
2023-03-02T04:17:13.056Z,1.07
2023-03-02T04:19:40.934Z,1.07
2023-03-02T04:22:08.425Z,1.06
2023-03-02T04:24:35.864Z,1.04
2023-03-02T04:27:03.271Z,1.03
2023-03-02T04:29:32.744Z,1.02
2023-03-02T04:32:00.328Z,1.03
2023-03-02T04:34:27.972Z,1.00
2023-03-02T04:36:55.536Z,0.98
2023-03-02T04:39:23.123Z,0.98
2023-03-02T04:41:50.664Z,0.98
2023-03-02T04:44:18.628Z,0.96
2023-03-02T04:46:47.659Z,0.92
2023-03-02T04:49:16.120Z,0.92
2023-03-02T04:51:45.240Z,0.93
2023-03-02T04:54:14.903Z,0.95
2023-03-02T04:56:42.369Z,0.94
2023-03-02T04:59:09.963Z,0.92
2023-03-02T05:01:37.452Z,0.89
2023-03-02T05:04:08.310Z,0.87
2023-03-02T05:06:35.950Z,0.87
2023-03-02T05:09:04.690Z,0.85
2023-03-02T05:11:32.252Z,0.86
2023-03-02T05:14:00.332Z,0.83
2023-03-02T05:16:29.063Z,0.83
2023-03-02T05:18:56.883Z,0.84
2023-03-02T05:21:25.820Z,0.85
2023-03-02T05:23:53.486Z,0.86
2023-03-02T05:26:21.013Z,0.87
2023-03-02T05:28:48.523Z,0.87
2023-03-02T05:31:17.729Z,0.87
2023-03-02T05:33:45.336Z,0.87
2023-03-02T05:36:12.811Z,0.87
2023-03-02T05:38:41.702Z,0.88
2023-03-02T05:41:09.220Z,0.86
2023-03-02T05:43:36.816Z,0.85
2023-03-02T05:46:04.369Z,0.87
2023-03-02T05:48:32.101Z,0.87
2023-03-02T05:50:59.948Z,0.88
2023-03-02T05:53:27.461Z,0.88
2023-03-02T05:55:56.413Z,0.88
2023-03-02T05:58:23.899Z,0.87
2023-03-02T06:00:51.428Z,0.87
2023-03-02T06:03:18.983Z,0.87
2023-03-02T06:05:52.231Z,0.88
2023-03-02T06:08:19.914Z,0.88
2023-03-02T06:10:47.420Z,0.89
2023-03-02T06:13:16.354Z,0.90
2023-03-02T06:15:44.020Z,0.89
2023-03-02T06:18:12.602Z,0.88
2023-03-02T06:20:40.517Z,0.87
2023-03-02T06:23:08.017Z,0.87
2023-03-02T06:25:37.020Z,0.87
2023-03-02T06:28:04.712Z,0.89
2023-03-02T06:30:33.612Z,0.89
2023-03-02T06:33:01.656Z,0.88
2023-03-02T06:35:29.277Z,0.88
2023-03-02T06:37:56.964Z,0.88
2023-03-02T06:40:24.422Z,0.88
2023-03-02T06:42:51.940Z,0.90
2023-03-02T06:45:19.393Z,0.90
2023-03-02T06:47:48.311Z,0.90
2023-03-02T06:50:15.848Z,0.88
2023-03-02T06:52:43.342Z,0.88
2023-03-02T06:55:11.135Z,0.89
2023-03-02T06:57:38.894Z,0.93
2023-03-02T07:00:09.824Z,0.96
2023-03-02T07:02:37.614Z,1.00
2023-03-02T07:05:07.353Z,1.01
2023-03-02T07:07:34.794Z,1.00
2023-03-02T07:10:02.378Z,1.00
2023-03-02T07:12:30.015Z,1.02
2023-03-02T07:14:57.466Z,1.03
2023-03-02T07:17:24.960Z,1.05
2023-03-02T07:19:52.518Z,1.09
2023-03-02T07:22:21.546Z,1.10
2023-03-02T07:24:49.057Z,1.10
2023-03-02T07:27:16.531Z,1.13
2023-03-02T07:29:44.082Z,1.15
2023-03-02T07:32:12.668Z,1.17
2023-03-02T07:34:40.226Z,1.21
2023-03-02T07:37:07.751Z,1.24
2023-03-02T07:39:36.787Z,1.26
2023-03-02T07:42:07.046Z,1.28
2023-03-02T07:44:34.483Z,1.31
2023-03-02T07:47:38.948Z,1.34
2023-03-02T07:50:06.943Z,1.35
2023-03-02T07:52:34.502Z,1.35
2023-03-02T07:55:02.089Z,1.37
2023-03-02T07:57:29.542Z,1.40
2023-03-02T07:59:57.035Z,1.43
2023-03-02T08:02:25.507Z,1.48
2023-03-02T08:04:54.515Z,1.47
2023-03-02T08:07:22.105Z,1.50
2023-03-02T08:09:49.712Z,1.54
2023-03-02T08:12:17.222Z,1.58
2023-03-02T08:14:45.179Z,1.62
2023-03-02T08:17:12.697Z,1.64
2023-03-02T08:19:40.163Z,1.65
2023-03-02T08:22:09.044Z,1.68
2023-03-02T08:24:36.605Z,1.71
2023-03-02T08:27:04.477Z,1.71
2023-03-02T08:29:32.053Z,1.72
2023-03-02T08:31:59.999Z,1.75
2023-03-02T08:34:27.674Z,1.75
2023-03-02T08:36:55.205Z,1.77
2023-03-02T08:39:24.080Z,1.79
2023-03-02T08:41:51.787Z,1.80
2023-03-02T08:44:20.915Z,1.82
2023-03-02T08:46:48.903Z,1.84
2023-03-02T08:49:16.456Z,1.88
2023-03-02T08:51:43.954Z,1.95
2023-03-02T08:54:12.065Z,2.00
2023-03-02T08:56:41.009Z,2.08
2023-03-02T08:59:10.169Z,2.14
2023-03-02T09:01:38.354Z,2.17
2023-03-02T09:04:06.434Z,2.19
2023-03-02T09:06:34.821Z,2.19
2023-03-02T09:09:02.539Z,2.23
2023-03-02T09:11:30.223Z,2.31
2023-03-02T09:13:59.131Z,2.40
2023-03-02T09:16:26.816Z,2.46
2023-03-02T09:18:54.538Z,2.52
2023-03-02T09:21:22.097Z,2.57
2023-03-02T09:23:53.950Z,2.64
2023-03-02T09:26:21.461Z,2.74
2023-03-02T09:28:49.396Z,2.83
2023-03-02T09:31:18.274Z,2.91
2023-03-02T09:33:45.883Z,2.97
2023-03-02T09:36:14.518Z,2.98
2023-03-02T09:38:42.030Z,3.00
2023-03-02T09:41:14.654Z,3.10
2023-03-02T09:43:45.121Z,3.21
2023-03-02T09:46:21.263Z,3.29
2023-03-02T09:48:50.820Z,3.37
2023-03-02T09:51:24.733Z,3.44
2023-03-02T09:53:53.281Z,3.51
2023-03-02T09:56:21.047Z,3.58
2023-03-02T09:58:49.956Z,3.61
2023-03-02T10:01:18.423Z,3.64
2023-03-02T10:03:48.547Z,3.68
2023-03-02T10:06:16.118Z,3.70
2023-03-02T10:08:43.816Z,3.72
2023-03-02T10:11:13.963Z,3.71
2023-03-02T10:13:44.630Z,3.75
2023-03-02T10:16:14.760Z,3.80
2023-03-02T10:18:43.826Z,3.84
2023-03-02T10:21:15.386Z,3.87
2023-03-02T10:23:46.806Z,3.94
2023-03-02T10:26:20.651Z,3.97
2023-03-02T10:28:50.594Z,4.04
2023-03-02T10:31:19.826Z,4.11
2023-03-02T10:33:47.334Z,4.22
2023-03-02T10:36:20.694Z,4.31
2023-03-02T10:38:48.546Z,4.38
2023-03-02T10:41:16.664Z,4.43
2023-03-02T10:43:45.169Z,4.49
2023-03-02T10:46:13.632Z,4.54
2023-03-02T10:48:49.556Z,4.57
2023-03-02T10:51:28.639Z,4.62
2023-03-02T10:54:05.852Z,4.68
2023-03-02T10:56:33.886Z,4.75
2023-03-02T10:59:03.937Z,4.79
2023-03-02T11:01:31.980Z,4.80
2023-03-02T11:04:00.211Z,4.82
2023-03-02T11:06:29.419Z,4.90
2023-03-02T11:09:00.925Z,5.00
2023-03-02T11:11:28.643Z,5.14
2023-03-02T11:13:57.511Z,5.24
2023-03-02T11:16:26.323Z,5.32
2023-03-02T11:18:55.650Z,5.35
2023-03-02T11:21:24.152Z,5.40
2023-03-02T11:23:56.837Z,5.45
2023-03-02T11:26:25.050Z,5.49
2023-03-02T11:28:54.134Z,5.52
2023-03-02T11:31:27.309Z,5.62
2023-03-02T11:34:07.978Z,5.71
2023-03-02T11:36:44.937Z,5.78
2023-03-02T11:39:15.463Z,5.80
2023-03-02T11:41:42.948Z,5.84
2023-03-02T11:44:13.665Z,5.91
2023-03-02T11:46:41.291Z,5.98
2023-03-02T11:49:13.013Z,6.06
2023-03-02T11:51:50.090Z,6.11
2023-03-02T11:54:36.702Z,6.15
2023-03-02T11:57:04.643Z,6.21
2023-03-02T11:59:32.174Z,6.23
2023-03-02T12:02:00.613Z,6.32
2023-03-02T12:04:29.446Z,6.41
2023-03-02T12:06:57.032Z,6.49
2023-03-02T12:09:33.143Z,6.52
2023-03-02T12:12:01.765Z,6.51
2023-03-02T12:14:30.940Z,6.52
2023-03-02T12:17:05.979Z,6.55
2023-03-02T12:19:40.280Z,6.60
2023-03-02T12:22:10.611Z,6.67
2023-03-02T12:24:40.392Z,6.72
2023-03-02T12:27:09.248Z,6.78
2023-03-02T12:29:40.501Z,6.84
2023-03-02T12:32:12.105Z,6.89
2023-03-02T12:34:40.327Z,7.00
2023-03-02T12:37:12.641Z,7.07
2023-03-02T12:39:55.079Z,7.14
2023-03-02T12:42:33.235Z,7.19
2023-03-02T12:45:02.246Z,7.23
2023-03-02T12:47:30.449Z,7.27
2023-03-02T12:49:58.352Z,7.27
2023-03-02T12:52:28.656Z,7.35
2023-03-02T12:55:03.402Z,7.38
2023-03-02T12:57:32.326Z,7.38
2023-03-02T13:00:00.668Z,7.39
2023-03-02T13:02:28.623Z,7.40
2023-03-02T13:04:56.845Z,7.40
2023-03-02T13:07:25.697Z,7.35
2023-03-02T13:09:56.925Z,7.32
2023-03-02T13:12:25.455Z,7.30
2023-03-02T13:14:55.626Z,7.33
2023-03-02T13:17:24.428Z,7.34
2023-03-02T13:19:51.852Z,7.37
2023-03-02T13:22:19.421Z,7.37
2023-03-02T13:24:47.805Z,7.36
2023-03-02T13:27:17.106Z,7.36
2023-03-02T13:29:45.563Z,7.36
2023-03-02T13:32:21.565Z,7.39
2023-03-02T13:34:50.091Z,7.43
2023-03-02T13:37:19.606Z,7.49
2023-03-02T13:39:55.097Z,7.52
2023-03-02T13:42:27.160Z,7.54
2023-03-02T13:44:54.745Z,7.53
2023-03-02T13:47:24.791Z,7.55
2023-03-02T13:49:52.503Z,7.55
2023-03-02T13:52:22.752Z,7.61
2023-03-02T13:54:50.275Z,7.66
2023-03-02T13:57:18.173Z,7.69
2023-03-02T13:59:45.641Z,7.73
2023-03-02T14:02:19.983Z,7.75
2023-03-02T14:04:48.900Z,7.75
2023-03-02T14:07:17.540Z,7.78
2023-03-02T14:09:45.088Z,7.82
2023-03-02T14:12:13.118Z,7.83
2023-03-02T14:14:40.775Z,7.85
2023-03-02T14:17:10.723Z,7.85
2023-03-02T14:19:38.248Z,7.84
2023-03-02T14:22:07.140Z,7.85
2023-03-02T14:24:34.667Z,7.89
2023-03-02T14:27:02.139Z,7.94
2023-03-02T14:29:30.185Z,7.97
2023-03-02T14:32:00.196Z,7.99
2023-03-02T14:34:27.721Z,8.01
2023-03-02T14:36:55.961Z,8.02
2023-03-02T14:39:24.999Z,8.02
2023-03-02T14:41:54.114Z,8.02
2023-03-02T14:44:22.058Z,7.98
2023-03-02T14:46:49.568Z,7.95
2023-03-02T14:49:17.221Z,7.93
2023-03-02T14:51:44.799Z,7.94
2023-03-02T14:54:13.179Z,7.95
2023-03-02T14:56:42.097Z,7.95
2023-03-02T14:59:10.164Z,7.94
2023-03-02T15:01:37.773Z,7.90
2023-03-02T15:04:05.385Z,7.88
2023-03-02T15:06:34.018Z,7.87
2023-03-02T15:09:02.036Z,7.85
2023-03-02T15:11:29.682Z,7.86
2023-03-02T15:13:58.644Z,7.85
2023-03-02T15:16:26.345Z,7.80
2023-03-02T15:18:54.018Z,7.74
2023-03-02T15:21:22.344Z,7.66
2023-03-02T15:23:50.875Z,7.59
2023-03-02T15:26:18.380Z,7.50
2023-03-02T15:28:46.486Z,7.44
2023-03-02T15:31:16.164Z,7.39
2023-03-02T15:33:45.165Z,7.33
2023-03-02T15:36:12.789Z,7.25
2023-03-02T15:38:40.322Z,7.19
2023-03-02T15:41:08.265Z,7.14
2023-03-02T15:43:35.849Z,7.09
2023-03-02T15:46:03.296Z,7.06
2023-03-02T15:48:32.143Z,7.00
2023-03-02T15:50:59.696Z,6.94
2023-03-02T15:53:27.320Z,6.89
2023-03-02T15:55:54.830Z,6.85
2023-03-02T15:58:22.923Z,6.83
2023-03-02T16:00:50.629Z,6.79
2023-03-02T16:03:19.296Z,6.77
2023-03-02T16:05:48.271Z,6.75
2023-03-02T16:08:15.739Z,6.74
2023-03-02T16:10:43.868Z,6.72
2023-03-02T16:13:14.129Z,6.71
2023-03-02T16:15:41.893Z,6.67
2023-03-02T16:18:09.528Z,6.64
2023-03-02T16:20:37.304Z,6.61
2023-03-02T16:23:07.812Z,6.56
2023-03-02T16:25:35.604Z,6.52
2023-03-02T16:28:03.215Z,6.49
2023-03-02T16:30:30.876Z,6.45
2023-03-02T16:32:58.864Z,6.41
2023-03-02T16:35:26.275Z,6.36
2023-03-02T16:37:53.813Z,6.31
2023-03-02T16:40:22.791Z,6.25
2023-03-02T16:42:50.890Z,6.19
2023-03-02T16:45:18.610Z,6.13
2023-03-02T16:47:46.149Z,6.07
2023-03-02T16:50:13.883Z,6.01
2023-03-02T16:52:41.427Z,5.96
2023-03-02T16:55:10.027Z,5.90
2023-03-02T16:57:39.001Z,5.83
2023-03-02T17:00:08.448Z,5.75
2023-03-02T17:02:35.984Z,5.68
2023-03-02T17:05:03.503Z,5.63
2023-03-02T17:07:31.028Z,5.57
2023-03-02T17:09:58.930Z,5.51
2023-03-02T17:12:26.470Z,5.44
2023-03-02T17:14:55.540Z,5.39
2023-03-02T17:17:23.168Z,5.33
2023-03-02T17:19:50.627Z,5.27
2023-03-02T17:22:18.090Z,5.22
2023-03-02T17:24:45.585Z,5.18
2023-03-02T17:27:24.077Z,5.13
2023-03-02T17:29:52.664Z,5.07
2023-03-02T17:32:21.643Z,4.98
2023-03-02T17:34:49.142Z,4.92
2023-03-02T17:37:17.536Z,4.87
2023-03-02T17:39:45.012Z,4.83
2023-03-02T17:42:12.537Z,4.78
2023-03-02T17:44:40.395Z,4.73
2023-03-02T17:47:08.222Z,4.67
2023-03-02T17:49:37.080Z,4.63
2023-03-02T17:52:04.691Z,4.57
2023-03-02T17:54:32.229Z,4.52
2023-03-02T17:56:59.734Z,4.47
2023-03-02T17:59:27.362Z,4.43
2023-03-02T18:01:54.849Z,4.39
2023-03-02T18:04:22.452Z,4.34
2023-03-02T18:06:53.940Z,4.30
2023-03-02T18:09:21.596Z,4.27
2023-03-02T18:11:49.079Z,4.25
2023-03-02T18:14:17.095Z,4.21
2023-03-02T18:16:44.623Z,4.17
2023-03-02T18:19:12.126Z,4.13
2023-03-02T18:21:40.180Z,4.08
2023-03-02T18:24:09.720Z,4.04
2023-03-02T18:26:37.239Z,4.02
2023-03-02T18:29:04.691Z,3.99
2023-03-02T18:31:33.993Z,3.96
2023-03-02T18:34:01.566Z,3.94
2023-03-02T18:36:29.043Z,3.93
2023-03-02T18:38:56.576Z,3.88
2023-03-02T18:41:25.572Z,3.87
2023-03-02T18:43:53.144Z,3.84
2023-03-02T18:46:21.835Z,3.81
2023-03-02T18:48:50.152Z,3.81
2023-03-02T18:51:17.942Z,3.77
2023-03-02T18:53:45.521Z,3.73
2023-03-02T18:56:13.024Z,3.70
2023-03-02T18:58:42.005Z,3.67
2023-03-02T19:01:09.570Z,3.64
2023-03-02T19:03:38.567Z,3.63
2023-03-02T19:06:07.298Z,3.60
2023-03-02T19:08:35.442Z,3.57
2023-03-02T19:11:03.133Z,3.52
2023-03-02T19:13:30.694Z,3.48
2023-03-02T19:16:01.444Z,3.43
2023-03-02T19:18:28.922Z,3.40
2023-03-02T19:20:57.564Z,3.38
2023-03-02T19:23:25.092Z,3.34
2023-03-02T19:25:52.686Z,3.32
2023-03-02T19:28:21.541Z,3.30
2023-03-02T19:30:49.044Z,3.28
2023-03-02T19:33:18.155Z,3.27
2023-03-02T19:35:45.729Z,3.23
2023-03-02T19:38:13.320Z,3.23
2023-03-02T19:40:40.770Z,3.21
2023-03-02T19:43:08.352Z,3.18
2023-03-02T19:45:36.254Z,3.14
2023-03-02T19:48:03.785Z,3.10
2023-03-02T19:50:32.896Z,3.09
2023-03-02T19:53:00.386Z,3.08
2023-03-02T19:55:28.032Z,3.05
2023-03-02T19:58:00.177Z,3.03
2023-03-02T20:00:28.268Z,3.01
2023-03-02T20:02:56.053Z,2.99
2023-03-02T20:05:23.519Z,2.96
2023-03-02T20:07:52.414Z,2.95
2023-03-02T20:10:23.461Z,2.94
2023-03-02T20:12:50.952Z,2.92
2023-03-02T20:15:18.651Z,2.91
2023-03-02T20:17:46.124Z,2.88
2023-03-02T20:20:13.769Z,2.85
2023-03-02T20:22:41.298Z,2.81
2023-03-02T20:25:10.464Z,2.79
2023-03-02T20:27:38.038Z,2.78
2023-03-02T20:30:06.937Z,2.76
2023-03-02T20:32:34.437Z,2.77
2023-03-02T20:35:02.095Z,2.75
2023-03-02T20:37:29.563Z,2.75
2023-03-02T20:39:57.328Z,2.77
2023-03-02T20:42:27.366Z,2.77
2023-03-02T20:44:56.327Z,2.77
2023-03-02T20:47:23.893Z,2.75
2023-03-02T20:49:51.387Z,2.74
2023-03-02T20:52:18.885Z,2.72
2023-03-02T20:54:46.416Z,2.72
2023-03-02T20:57:14.530Z,2.73
2023-03-02T20:59:45.694Z,2.71
2023-03-02T21:02:14.003Z,2.72
2023-03-02T21:04:42.448Z,2.72
2023-03-02T21:07:10.220Z,2.73
2023-03-02T21:09:37.732Z,2.72
2023-03-02T21:12:08.694Z,2.70
2023-03-02T21:14:36.440Z,2.71
2023-03-02T21:17:05.516Z,2.68
2023-03-02T21:19:34.075Z,2.69
2023-03-02T21:22:01.680Z,2.70
2023-03-02T21:24:29.454Z,2.69
2023-03-02T21:26:57.067Z,2.72
2023-03-02T21:29:26.648Z,2.73
2023-03-02T21:31:54.427Z,2.72
2023-03-02T21:34:23.332Z,2.72
2023-03-02T21:36:53.451Z,2.72
2023-03-02T21:39:22.026Z,2.73
2023-03-02T21:41:49.734Z,2.72
2023-03-02T21:44:17.267Z,2.68
2023-03-02T21:46:44.802Z,2.63
2023-03-02T21:49:12.962Z,2.64
2023-03-02T21:51:41.836Z,2.63
2023-03-02T21:54:09.400Z,2.64
2023-03-02T21:56:36.897Z,2.64
2023-03-02T21:59:05.002Z,2.65
2023-03-02T22:01:32.838Z,2.66
2023-03-02T22:04:00.696Z,2.65
2023-03-02T22:06:30.113Z,2.62
2023-03-02T22:08:59.884Z,2.57
2023-03-02T22:11:28.159Z,2.54
2023-03-02T22:13:56.059Z,2.48
2023-03-02T22:16:24.230Z,2.44
2023-03-02T22:18:54.122Z,2.41
2023-03-02T22:21:24.612Z,2.42
2023-03-02T22:23:53.868Z,2.42
2023-03-02T22:26:22.747Z,2.43
2023-03-02T22:28:50.264Z,2.43
2023-03-02T22:31:19.634Z,2.42
2023-03-02T22:33:47.106Z,2.40
2023-03-02T22:36:22.001Z,2.40
2023-03-02T22:38:49.611Z,2.40
2023-03-02T22:41:17.752Z,2.42
2023-03-02T22:43:46.877Z,2.40
2023-03-02T22:46:17.401Z,2.41
2023-03-02T22:48:45.967Z,2.41
2023-03-02T22:51:15.072Z,2.42
2023-03-02T22:53:52.285Z,2.43
2023-03-02T22:56:29.906Z,2.41
2023-03-02T22:58:59.441Z,2.36
2023-03-02T23:01:27.567Z,2.32
2023-03-02T23:03:55.556Z,2.27
2023-03-02T23:06:27.504Z,2.23
2023-03-02T23:08:55.631Z,2.20
2023-03-02T23:11:23.667Z,2.19
2023-03-02T23:13:52.196Z,2.18
2023-03-02T23:16:21.657Z,2.18
2023-03-02T23:18:49.591Z,2.20
2023-03-02T23:21:18.498Z,2.17
2023-03-02T23:23:46.025Z,2.17
2023-03-02T23:26:13.492Z,2.16
2023-03-02T23:28:41.020Z,2.17
2023-03-02T23:31:08.487Z,2.18
2023-03-02T23:33:37.343Z,2.19
2023-03-02T23:36:04.996Z,2.23
2023-03-02T23:38:32.501Z,2.27
2023-03-02T23:41:00.052Z,2.27
2023-03-02T23:43:27.517Z,2.26
2023-03-02T23:45:56.032Z,2.26
2023-03-02T23:48:23.892Z,2.26
2023-03-02T23:50:52.798Z,2.25
2023-03-02T23:53:20.308Z,2.22
2023-03-02T23:55:48.422Z,2.18
2023-03-02T23:58:15.905Z,2.15
